createdAt,value
2023-05-11T00:00:15.236Z,14.30
2023-05-11T00:01:17.021Z,14.32
2023-05-11T00:02:18.649Z,14.33
2023-05-11T00:03:20.311Z,14.30
2023-05-11T00:04:22.030Z,14.28
2023-05-11T00:05:23.661Z,14.27
2023-05-11T00:06:25.316Z,14.31
2023-05-11T00:07:26.837Z,14.33
2023-05-11T00:08:28.422Z,14.25
2023-05-11T00:09:30.060Z,14.11
2023-05-11T00:10:31.608Z,14.07
2023-05-11T00:11:33.159Z,14.09
2023-05-11T00:12:34.685Z,14.08
2023-05-11T00:13:36.258Z,14.05
2023-05-11T00:14:37.868Z,14.08
2023-05-11T00:15:39.391Z,14.13
2023-05-11T00:16:40.924Z,14.07
2023-05-11T00:17:42.613Z,14.06
2023-05-11T00:18:44.320Z,14.07
2023-05-11T00:19:45.902Z,14.03
2023-05-11T00:20:47.431Z,14.03
2023-05-11T00:21:49.007Z,13.97
2023-05-11T00:22:50.570Z,14.00
2023-05-11T00:23:52.169Z,14.08
2023-05-11T00:24:53.690Z,14.11
2023-05-11T00:25:55.194Z,14.15
2023-05-11T00:26:56.699Z,14.23
2023-05-11T00:27:58.186Z,14.07
2023-05-11T00:28:59.690Z,13.99
2023-05-11T00:30:01.230Z,13.81
2023-05-11T00:31:02.830Z,13.62
2023-05-11T00:32:04.392Z,13.52
2023-05-11T00:33:06.208Z,13.45
2023-05-11T00:34:07.800Z,13.37
2023-05-11T00:35:10.676Z,13.29
2023-05-11T00:36:12.201Z,13.34
2023-05-11T00:37:13.744Z,13.44
2023-05-11T00:38:15.497Z,13.52
2023-05-11T00:39:17.191Z,13.51
2023-05-11T00:40:18.969Z,13.54
2023-05-11T00:41:20.948Z,13.61
2023-05-11T00:42:22.530Z,13.59
2023-05-11T00:43:24.081Z,13.63
2023-05-11T00:44:25.656Z,13.65
2023-05-11T00:45:27.706Z,13.72
2023-05-11T00:46:29.502Z,13.73
2023-05-11T00:47:31.218Z,13.80
2023-05-11T00:48:33.023Z,13.85
2023-05-11T00:49:34.600Z,13.81
2023-05-11T00:50:36.300Z,13.72
2023-05-11T00:51:38.382Z,13.58
2023-05-11T00:52:41.957Z,13.52
2023-05-11T00:53:43.500Z,13.57
2023-05-11T00:54:47.052Z,13.59
2023-05-11T00:55:48.596Z,13.66
2023-05-11T00:56:50.127Z,13.57
2023-05-11T00:57:51.764Z,13.44
2023-05-11T00:58:53.349Z,13.33
2023-05-11T00:59:54.970Z,13.28
2023-05-11T01:00:56.604Z,13.33
2023-05-11T01:01:58.396Z,13.36
2023-05-11T01:03:01.503Z,13.45
2023-05-11T01:04:03.612Z,13.45
2023-05-11T01:05:05.975Z,13.46
2023-05-11T01:06:15.500Z,13.46
2023-05-11T01:07:23.294Z,13.45
2023-05-11T01:08:31.744Z,13.51
2023-05-11T01:09:51.793Z,13.56
2023-05-11T01:10:53.291Z,13.56
2023-05-11T01:12:08.534Z,13.47
2023-05-11T01:13:27.691Z,13.51
2023-05-11T01:15:06.889Z,13.42
2023-05-11T01:16:32.148Z,13.24
2023-05-11T01:17:39.353Z,13.21
2023-05-11T01:18:55.899Z,13.20
2023-05-11T01:20:05.614Z,13.14
2023-05-11T01:21:09.498Z,13.12
2023-05-11T01:22:30.980Z,13.10
2023-05-11T01:23:47.392Z,12.93
2023-05-11T01:25:12.224Z,12.85
2023-05-11T01:26:32.433Z,12.90
2023-05-11T01:28:00.304Z,12.90
2023-05-11T01:29:26.809Z,12.99
2023-05-11T01:30:50.336Z,13.04
2023-05-11T01:31:55.401Z,12.98
2023-05-11T01:33:02.943Z,12.92
2023-05-11T01:34:09.716Z,12.94
2023-05-11T01:35:18.327Z,13.01
2023-05-11T01:36:23.528Z,13.04
2023-05-11T01:37:26.678Z,13.12
2023-05-11T01:38:34.313Z,13.15
2023-05-11T01:39:47.163Z,13.17
2023-05-11T01:40:57.355Z,13.18
2023-05-11T01:42:06.782Z,13.20
2023-05-11T01:43:13.689Z,13.27
2023-05-11T01:44:18.964Z,13.35
2023-05-11T01:45:22.385Z,13.44
2023-05-11T01:46:26.809Z,13.47
2023-05-11T01:47:30.173Z,13.45
2023-05-11T01:48:35.491Z,13.41
2023-05-11T01:49:38.564Z,13.45
2023-05-11T01:50:41.873Z,13.42
2023-05-11T01:51:46.137Z,13.40
2023-05-11T01:52:50.406Z,13.41
2023-05-11T01:53:53.401Z,13.35
2023-05-11T01:54:57.381Z,13.14
2023-05-11T01:56:00.573Z,12.96
2023-05-11T01:57:03.436Z,12.86
2023-05-11T01:58:06.447Z,12.96
2023-05-11T01:59:10.260Z,12.93
2023-05-11T02:00:13.169Z,12.85
2023-05-11T02:01:17.550Z,12.71
2023-05-11T02:02:19.724Z,12.63
2023-05-11T02:03:22.476Z,12.62
2023-05-11T02:04:25.695Z,12.62
2023-05-11T02:05:30.108Z,12.67
2023-05-11T02:06:35.300Z,12.70
2023-05-11T02:07:40.633Z,12.56
2023-05-11T02:08:43.207Z,12.51
2023-05-11T02:09:45.944Z,12.56
2023-05-11T02:10:49.857Z,12.50
2023-05-11T02:11:53.588Z,12.50
2023-05-11T02:12:56.302Z,12.57
2023-05-11T02:14:00.302Z,12.60
2023-05-11T02:15:04.293Z,12.62
2023-05-11T02:16:07.576Z,12.63
2023-05-11T02:17:10.576Z,12.51
2023-05-11T02:18:14.639Z,12.51
2023-05-11T02:19:18.256Z,12.60
2023-05-11T02:20:20.549Z,12.57
2023-05-11T02:21:22.708Z,12.60
2023-05-11T02:22:25.711Z,12.61
2023-05-11T02:23:27.834Z,12.63
2023-05-11T02:24:30.881Z,12.58
2023-05-11T02:25:33.017Z,12.60
2023-05-11T02:26:34.779Z,12.56
2023-05-11T02:27:37.055Z,12.32
2023-05-11T02:28:38.662Z,12.32
2023-05-11T02:29:40.269Z,12.34
2023-05-11T02:30:46.880Z,12.29
2023-05-11T02:31:52.710Z,12.14
2023-05-11T02:32:57.744Z,12.17
2023-05-11T02:34:13.599Z,12.27
2023-05-11T02:35:28.135Z,12.22
2023-05-11T02:36:33.236Z,12.06
2023-05-11T02:37:40.946Z,12.01
2023-05-11T02:38:45.980Z,12.06
2023-05-11T02:39:55.796Z,12.04
2023-05-11T02:41:00.501Z,11.99
2023-05-11T02:42:13.935Z,11.98
2023-05-11T02:43:21.651Z,12.02
2023-05-11T02:44:32.340Z,12.07
2023-05-11T02:45:35.428Z,12.10
2023-05-11T02:46:40.314Z,12.06
2023-05-11T02:48:09.750Z,12.08
2023-05-11T02:49:12.677Z,12.07
2023-05-11T02:50:17.894Z,12.08
2023-05-11T02:51:24.396Z,12.06
2023-05-11T02:52:28.100Z,12.08
2023-05-11T02:53:33.512Z,12.09
2023-05-11T02:54:37.309Z,11.93
2023-05-11T02:55:39.292Z,11.83
2023-05-11T02:56:41.389Z,11.79
2023-05-11T02:57:45.094Z,11.93
2023-05-11T02:58:46.927Z,12.03
2023-05-11T02:59:53.472Z,12.04
2023-05-11T03:00:55.449Z,12.02
2023-05-11T03:01:58.088Z,12.00
2023-05-11T03:03:00.122Z,11.99
2023-05-11T03:04:04.998Z,11.97
2023-05-11T03:05:06.881Z,11.98
2023-05-11T03:06:09.263Z,11.98
2023-05-11T03:07:11.556Z,12.01
2023-05-11T03:08:13.457Z,11.97
2023-05-11T03:09:15.176Z,11.93
2023-05-11T03:10:21.566Z,11.99
2023-05-11T03:11:23.988Z,12.00
2023-05-11T03:12:25.584Z,12.00
2023-05-11T03:13:28.236Z,12.03
2023-05-11T03:14:35.224Z,12.13
2023-05-11T03:15:38.656Z,12.11
2023-05-11T03:16:41.016Z,12.06
2023-05-11T03:17:43.984Z,12.05
2023-05-11T03:18:49.661Z,12.01
2023-05-11T03:19:54.588Z,11.95
2023-05-11T03:20:57.471Z,11.94
2023-05-11T03:22:00.502Z,11.88
2023-05-11T03:23:02.265Z,11.82
2023-05-11T03:24:06.513Z,11.79
2023-05-11T03:25:09.574Z,11.70
2023-05-11T03:26:12.158Z,11.60
2023-05-11T03:27:15.192Z,11.63
2023-05-11T03:28:21.337Z,11.57
2023-05-11T03:29:32.741Z,11.52
2023-05-11T03:30:35.018Z,11.41
2023-05-11T03:31:36.636Z,11.39
2023-05-11T03:32:38.433Z,11.39
2023-05-11T03:33:41.409Z,11.41
2023-05-11T03:34:44.053Z,11.40
2023-05-11T03:35:50.691Z,11.54
2023-05-11T03:36:56.602Z,11.60
2023-05-11T03:37:59.548Z,11.61
2023-05-11T03:39:02.038Z,11.63
2023-05-11T03:40:08.469Z,11.61
2023-05-11T03:41:20.609Z,11.59
2023-05-11T03:42:27.715Z,11.50
2023-05-11T03:43:31.792Z,11.48
2023-05-11T03:44:34.804Z,11.49
2023-05-11T03:45:37.434Z,11.57
2023-05-11T03:46:41.793Z,11.67
2023-05-11T03:47:46.681Z,11.71
2023-05-11T03:48:48.991Z,11.65
2023-05-11T03:49:58.717Z,11.60
2023-05-11T03:51:00.787Z,11.56
2023-05-11T03:52:02.776Z,11.53
2023-05-11T03:53:04.817Z,11.52
2023-05-11T03:54:06.624Z,11.52
2023-05-11T03:55:10.048Z,11.44
2023-05-11T03:56:12.067Z,11.32
2023-05-11T03:57:14.820Z,11.29
2023-05-11T03:58:16.663Z,11.27
2023-05-11T03:59:18.342Z,11.18
2023-05-11T04:00:20.044Z,11.11
2023-05-11T04:01:22.240Z,11.09
2023-05-11T04:02:23.966Z,11.14
2023-05-11T04:03:25.732Z,11.14
2023-05-11T04:04:31.111Z,11.09
2023-05-11T04:05:34.422Z,11.06
2023-05-11T04:06:38.388Z,11.04
2023-05-11T04:07:50.841Z,11.04
2023-05-11T04:08:53.306Z,11.06
2023-05-11T04:09:55.703Z,11.08
2023-05-11T04:10:57.220Z,11.06
2023-05-11T04:11:58.713Z,11.03
2023-05-11T04:13:00.279Z,11.03
2023-05-11T04:14:01.803Z,11.08
2023-05-11T04:15:03.511Z,11.12
2023-05-11T04:16:05.729Z,11.10
2023-05-11T04:17:07.302Z,11.06
2023-05-11T04:18:08.932Z,11.09
2023-05-11T04:19:10.724Z,11.16
2023-05-11T04:20:12.372Z,11.18
2023-05-11T04:21:13.937Z,11.22
2023-05-11T04:22:16.609Z,11.34
2023-05-11T04:23:18.169Z,11.39
2023-05-11T04:24:19.700Z,11.49
2023-05-11T04:25:21.290Z,11.54
2023-05-11T04:26:22.808Z,11.47
2023-05-11T04:27:24.371Z,11.45
2023-05-11T04:28:25.930Z,11.54
2023-05-11T04:29:27.462Z,11.58
2023-05-11T04:30:29.028Z,11.59
2023-05-11T04:31:31.520Z,11.55
2023-05-11T04:32:33.341Z,11.46
2023-05-11T04:33:34.983Z,11.44
2023-05-11T04:34:36.696Z,11.56
2023-05-11T04:35:39.950Z,11.61
2023-05-11T04:36:41.662Z,11.65
2023-05-11T04:37:43.230Z,11.66
2023-05-11T04:38:45.005Z,11.67
2023-05-11T04:39:46.747Z,11.70
2023-05-11T04:40:48.934Z,11.78
2023-05-11T04:41:51.070Z,11.81
2023-05-11T04:42:52.868Z,11.84
2023-05-11T04:43:54.714Z,11.88
2023-05-11T04:44:56.315Z,11.90
2023-05-11T04:45:58.035Z,11.95
2023-05-11T04:47:01.953Z,11.95
2023-05-11T04:48:03.981Z,12.01
2023-05-11T04:49:05.789Z,12.05
2023-05-11T04:50:08.288Z,12.07
2023-05-11T04:51:10.660Z,12.11
2023-05-11T04:52:16.559Z,12.18
2023-05-11T04:53:21.420Z,12.23
2023-05-11T04:54:23.348Z,12.29
2023-05-11T04:55:24.910Z,12.35
2023-05-11T04:56:28.141Z,12.43
2023-05-11T04:57:29.723Z,12.49
2023-05-11T04:58:31.599Z,12.54
2023-05-11T04:59:33.163Z,12.56
2023-05-11T05:00:34.746Z,12.59
2023-05-11T05:01:36.352Z,12.67
2023-05-11T05:02:38.143Z,12.72
2023-05-11T05:03:40.228Z,12.78
2023-05-11T05:04:41.782Z,12.84
2023-05-11T05:05:43.332Z,12.89
2023-05-11T05:06:45.594Z,12.90
2023-05-11T05:07:50.012Z,12.90
2023-05-11T05:08:51.763Z,12.90
2023-05-11T05:09:54.939Z,12.86
2023-05-11T05:10:56.534Z,12.95
2023-05-11T05:11:58.760Z,13.05
2023-05-11T05:13:00.374Z,13.16
2023-05-11T05:14:01.934Z,13.25
2023-05-11T05:15:04.455Z,13.30
2023-05-11T05:16:06.080Z,13.33
2023-05-11T05:17:07.738Z,13.32
2023-05-11T05:18:09.554Z,13.35
2023-05-11T05:19:11.199Z,13.44
2023-05-11T05:20:12.774Z,13.49
2023-05-11T05:21:14.319Z,13.58
2023-05-11T05:22:15.882Z,13.66
2023-05-11T05:23:17.452Z,13.75
2023-05-11T05:24:19.327Z,13.85
2023-05-11T05:25:21.027Z,13.96
2023-05-11T05:26:22.761Z,14.00
2023-05-11T05:27:25.406Z,14.01
2023-05-11T05:28:27.462Z,14.03
2023-05-11T05:29:28.996Z,14.01
2023-05-11T05:30:30.546Z,14.00
2023-05-11T05:31:32.353Z,13.98
2023-05-11T05:32:34.272Z,14.04
2023-05-11T05:33:35.875Z,14.08
2023-05-11T05:34:37.517Z,14.09
2023-05-11T05:35:39.078Z,14.11
2023-05-11T05:36:40.721Z,14.18
2023-05-11T05:37:42.384Z,14.27
2023-05-11T05:38:44.008Z,14.19
2023-05-11T05:39:47.101Z,14.24
2023-05-11T05:40:50.011Z,14.24
2023-05-11T05:41:52.229Z,14.26
2023-05-11T05:42:53.878Z,14.08
2023-05-11T05:43:57.264Z,13.88
2023-05-11T05:44:58.780Z,14.03
2023-05-11T05:46:00.396Z,14.18
2023-05-11T05:47:03.479Z,14.13
2023-05-11T05:48:07.692Z,14.27
2023-05-11T05:49:09.364Z,14.43
2023-05-11T05:50:12.102Z,14.41
2023-05-11T05:51:15.764Z,14.46
2023-05-11T05:52:17.293Z,14.54
2023-05-11T05:53:19.749Z,14.57
2023-05-11T05:54:21.453Z,14.67
2023-05-11T05:55:23.154Z,14.78
2023-05-11T05:56:25.851Z,14.87
2023-05-11T05:57:27.372Z,15.06
2023-05-11T05:58:28.965Z,15.31
2023-05-11T05:59:30.956Z,15.49
2023-05-11T06:00:35.176Z,15.76
2023-05-11T06:01:40.224Z,15.99
2023-05-11T06:02:42.107Z,16.13
2023-05-11T06:03:51.212Z,16.25
2023-05-11T06:04:52.880Z,16.36
2023-05-11T06:05:54.956Z,16.46
2023-05-11T06:06:56.551Z,16.52
2023-05-11T06:08:09.725Z,16.54
2023-05-11T06:09:13.101Z,16.46
2023-05-11T06:10:14.663Z,16.36
2023-05-11T06:11:16.197Z,16.43
2023-05-11T06:12:17.739Z,16.31
2023-05-11T06:13:22.159Z,16.38
2023-05-11T06:14:23.801Z,16.44
2023-05-11T06:15:25.617Z,16.27
2023-05-11T06:16:32.965Z,16.30
2023-05-11T06:17:34.563Z,16.34
2023-05-11T06:18:36.430Z,16.36
2023-05-11T06:19:40.780Z,16.27
2023-05-11T06:20:43.127Z,16.24
2023-05-11T06:21:45.920Z,16.12
2023-05-11T06:22:48.468Z,16.02
2023-05-11T06:23:50.118Z,16.03
2023-05-11T06:24:52.215Z,16.07
2023-05-11T06:25:54.760Z,16.18
2023-05-11T06:26:56.378Z,16.16
2023-05-11T06:27:57.950Z,15.94
2023-05-11T06:29:00.683Z,15.92
2023-05-11T06:30:03.243Z,16.03
2023-05-11T06:31:08.756Z,16.18
2023-05-11T06:32:12.328Z,16.14
2023-05-11T06:33:13.841Z,16.26
2023-05-11T06:34:15.612Z,16.30
2023-05-11T06:35:17.896Z,16.21
2023-05-11T06:36:20.526Z,16.22
2023-05-11T06:37:22.014Z,16.24
2023-05-11T06:38:25.416Z,16.39
2023-05-11T06:39:26.953Z,16.55
2023-05-11T06:40:28.509Z,16.60
2023-05-11T06:41:30.106Z,16.61
2023-05-11T06:42:31.688Z,16.70
2023-05-11T06:43:41.662Z,16.76
2023-05-11T06:44:54.167Z,16.89
2023-05-11T06:45:57.418Z,16.96
2023-05-11T06:46:59.022Z,16.92
2023-05-11T06:48:00.660Z,16.88
2023-05-11T06:49:02.244Z,16.80
2023-05-11T06:50:05.939Z,16.81
2023-05-11T06:51:10.384Z,16.77
2023-05-11T06:52:11.877Z,16.96
2023-05-11T06:53:13.684Z,17.18
2023-05-11T06:54:15.235Z,17.39
2023-05-11T06:55:16.792Z,17.51
2023-05-11T06:56:18.341Z,17.44
2023-05-11T06:57:19.861Z,17.39
2023-05-11T06:58:21.412Z,17.64
2023-05-11T06:59:23.131Z,17.83
2023-05-11T07:00:24.704Z,17.95
2023-05-11T07:01:26.406Z,17.97
2023-05-11T07:02:28.134Z,17.98
2023-05-11T07:03:29.700Z,18.08
2023-05-11T07:04:31.310Z,18.16
2023-05-11T07:05:32.921Z,18.14
2023-05-11T07:06:34.485Z,18.19
2023-05-11T07:07:36.035Z,18.20
2023-05-11T07:08:37.718Z,18.30
2023-05-11T07:09:40.096Z,18.45
2023-05-11T07:10:43.477Z,18.68
2023-05-11T07:11:44.986Z,18.77
2023-05-11T07:12:46.591Z,18.66
2023-05-11T07:13:48.076Z,18.72
2023-05-11T07:14:49.620Z,18.77
2023-05-11T07:15:51.215Z,18.76
2023-05-11T07:16:52.946Z,18.77
2023-05-11T07:17:54.629Z,18.75
2023-05-11T07:18:56.290Z,18.79
2023-05-11T07:19:57.872Z,18.84
2023-05-11T07:20:59.416Z,18.84
2023-05-11T07:22:00.930Z,18.84
2023-05-11T07:23:02.769Z,18.78
2023-05-11T07:24:04.467Z,18.68
2023-05-11T07:25:06.517Z,18.66
2023-05-11T07:26:08.043Z,18.61
2023-05-11T07:27:09.678Z,18.62
2023-05-11T07:28:11.267Z,18.77
2023-05-11T07:29:12.757Z,18.89
2023-05-11T07:30:15.010Z,19.01
2023-05-11T07:31:17.468Z,19.08
2023-05-11T07:32:19.009Z,19.11
2023-05-11T07:33:20.499Z,19.10
2023-05-11T07:34:22.071Z,19.13
2023-05-11T07:35:24.341Z,19.24
2023-05-11T07:36:26.072Z,19.21
2023-05-11T07:37:27.592Z,19.21
2023-05-11T07:38:29.131Z,19.30
2023-05-11T07:39:30.621Z,19.34
2023-05-11T07:40:32.213Z,19.34
2023-05-11T07:41:33.765Z,19.47
2023-05-11T07:42:35.280Z,19.52
2023-05-11T07:43:36.771Z,19.56
2023-05-11T07:44:38.328Z,19.62
2023-05-11T07:45:39.935Z,19.68
2023-05-11T07:46:41.641Z,19.76
2023-05-11T07:47:43.297Z,19.89
2023-05-11T07:48:44.870Z,20.03
2023-05-11T07:49:46.999Z,20.10
2023-05-11T07:50:48.562Z,20.19
2023-05-11T07:51:50.078Z,20.19
2023-05-11T07:52:52.448Z,20.17
2023-05-11T07:53:53.999Z,20.21
2023-05-11T07:54:55.496Z,20.23
2023-05-11T07:55:57.064Z,20.24
2023-05-11T07:56:58.637Z,20.30
2023-05-11T07:58:00.177Z,20.34
2023-05-11T07:59:01.793Z,20.41
2023-05-11T08:00:03.829Z,20.49
2023-05-11T08:01:13.309Z,20.58
2023-05-11T08:02:15.024Z,20.67
2023-05-11T08:03:16.665Z,20.78
2023-05-11T08:04:18.244Z,20.90
2023-05-11T08:05:20.360Z,20.97
2023-05-11T08:06:22.186Z,21.00
2023-05-11T08:07:23.796Z,21.09
2023-05-11T08:08:25.528Z,21.06
2023-05-11T08:09:27.052Z,20.94
2023-05-11T08:10:28.622Z,20.97
2023-05-11T08:11:30.165Z,21.11
2023-05-11T08:12:31.734Z,21.12
2023-05-11T08:13:33.249Z,21.17
2023-05-11T08:14:34.819Z,21.17
2023-05-11T08:15:36.340Z,21.18
2023-05-11T08:16:38.056Z,21.12
2023-05-11T08:17:39.844Z,20.97
2023-05-11T08:18:41.567Z,21.09
2023-05-11T08:19:43.158Z,21.14
2023-05-11T08:20:44.729Z,21.30
2023-05-11T08:21:46.275Z,21.39
2023-05-11T08:22:47.808Z,21.44
2023-05-11T08:23:49.347Z,21.32
2023-05-11T08:24:50.933Z,21.23
2023-05-11T08:25:54.200Z,21.10
2023-05-11T08:26:55.723Z,21.12
2023-05-11T08:27:57.378Z,21.15
2023-05-11T08:28:58.991Z,21.03
2023-05-11T08:30:01.196Z,21.06
2023-05-11T08:31:02.753Z,21.17
2023-05-11T08:32:04.470Z,21.24
2023-05-11T08:33:22.778Z,21.10
2023-05-11T08:34:27.810Z,21.00
2023-05-11T08:35:29.424Z,21.05
2023-05-11T08:36:30.942Z,21.04
2023-05-11T08:37:32.573Z,21.16
2023-05-11T08:38:35.306Z,21.33
2023-05-11T08:39:46.517Z,21.43
2023-05-11T08:40:51.188Z,21.40
2023-05-11T08:41:54.720Z,21.29
2023-05-11T08:42:56.556Z,21.40
2023-05-11T08:43:59.705Z,21.46
2023-05-11T08:45:01.965Z,21.50
2023-05-11T08:46:06.052Z,21.62
2023-05-11T08:47:22.004Z,21.89
2023-05-11T08:48:25.269Z,21.93
2023-05-11T08:49:27.021Z,22.03
2023-05-11T08:50:28.905Z,22.16
2023-05-11T08:51:30.511Z,22.04
2023-05-11T08:52:32.121Z,22.22
2023-05-11T08:53:33.851Z,22.33
2023-05-11T08:54:35.372Z,22.34
2023-05-11T08:55:38.796Z,22.48
2023-05-11T08:56:41.478Z,22.53
2023-05-11T08:57:44.699Z,22.63
2023-05-11T08:58:47.138Z,22.67
2023-05-11T08:59:49.345Z,22.52
2023-05-11T09:00:51.730Z,22.55
2023-05-11T09:01:54.023Z,22.58
2023-05-11T09:02:57.540Z,22.64
2023-05-11T09:03:59.392Z,22.72
2023-05-11T09:05:01.291Z,22.73
2023-05-11T09:06:05.153Z,22.82
2023-05-11T09:07:07.210Z,22.80
2023-05-11T09:08:10.900Z,22.81
2023-05-11T09:09:12.684Z,22.91
2023-05-11T09:10:14.565Z,23.00
2023-05-11T09:11:16.570Z,23.14
2023-05-11T09:12:18.392Z,23.24
2023-05-11T09:13:20.060Z,23.27
2023-05-11T09:14:27.147Z,23.28
2023-05-11T09:15:29.152Z,23.36
2023-05-11T09:16:37.268Z,23.44
2023-05-11T09:17:39.322Z,23.46
2023-05-11T09:18:50.723Z,23.60
2023-05-11T09:19:59.131Z,23.70
2023-05-11T09:21:01.769Z,23.70
2023-05-11T09:22:06.256Z,23.72
2023-05-11T09:23:07.834Z,23.74
2023-05-11T09:24:12.600Z,23.83
2023-05-11T09:25:15.645Z,23.88
2023-05-11T09:26:20.602Z,23.87
2023-05-11T09:27:24.560Z,23.78
2023-05-11T09:28:26.282Z,23.64
2023-05-11T09:29:30.617Z,23.56
2023-05-11T09:30:33.966Z,23.54
2023-05-11T09:31:39.513Z,23.52
2023-05-11T09:32:52.745Z,23.43
2023-05-11T09:34:09.107Z,23.01
2023-05-11T09:35:29.479Z,22.88
2023-05-11T09:36:31.068Z,22.59
2023-05-11T09:37:32.642Z,22.17
2023-05-11T09:38:34.225Z,21.97
2023-05-11T09:39:43.942Z,21.90
2023-05-11T09:40:58.251Z,21.88
2023-05-11T09:42:19.645Z,21.76
2023-05-11T09:43:28.197Z,21.81
2023-05-11T09:44:31.825Z,21.83
2023-05-11T09:45:39.832Z,21.81
2023-05-11T09:46:45.301Z,21.75
2023-05-11T09:47:49.026Z,21.61
2023-05-11T09:48:59.253Z,21.58
2023-05-11T09:50:16.992Z,21.56
2023-05-11T09:51:28.946Z,21.46
2023-05-11T09:52:30.495Z,21.33
2023-05-11T09:53:40.656Z,21.27
2023-05-11T09:54:47.095Z,21.34
2023-05-11T09:55:55.717Z,21.40
2023-05-11T09:56:57.398Z,21.57
2023-05-11T09:58:00.078Z,21.73
2023-05-11T09:59:01.798Z,21.82
2023-05-11T10:00:03.585Z,21.92
2023-05-11T10:01:13.612Z,21.98
2023-05-11T10:02:33.156Z,21.96
2023-05-11T10:03:46.075Z,21.92
2023-05-11T10:04:48.769Z,21.89
2023-05-11T10:05:59.309Z,21.76
2023-05-11T10:07:00.866Z,21.74
2023-05-11T10:08:03.947Z,21.82
2023-05-11T10:09:09.538Z,21.91
2023-05-11T10:10:11.196Z,21.96
2023-05-11T10:11:12.970Z,22.04
2023-05-11T10:12:14.729Z,22.15
2023-05-11T10:13:16.614Z,22.26
2023-05-11T10:14:19.511Z,22.45
2023-05-11T10:15:23.682Z,22.58
2023-05-11T10:16:25.255Z,22.62
2023-05-11T10:17:28.187Z,22.77
2023-05-11T10:18:31.335Z,22.93
2023-05-11T10:19:33.424Z,22.92
2023-05-11T10:20:35.096Z,22.80
2023-05-11T10:21:37.815Z,22.73
2023-05-11T10:22:39.744Z,22.67
2023-05-11T10:23:42.105Z,22.54
2023-05-11T10:24:43.832Z,22.45
2023-05-11T10:25:45.944Z,22.27
2023-05-11T10:26:47.856Z,22.06
2023-05-11T10:27:49.991Z,21.95
2023-05-11T10:28:52.786Z,21.78
2023-05-11T10:29:54.563Z,21.69
2023-05-11T10:30:57.179Z,21.87
2023-05-11T10:31:59.517Z,22.08
2023-05-11T10:33:01.972Z,22.29
2023-05-11T10:34:04.084Z,22.39
2023-05-11T10:35:06.690Z,22.56
2023-05-11T10:36:09.021Z,22.68
2023-05-11T10:37:10.747Z,22.64
2023-05-11T10:38:13.711Z,22.70
2023-05-11T10:39:15.256Z,22.71
2023-05-11T10:40:17.219Z,22.63
2023-05-11T10:41:37.278Z,22.49
2023-05-11T10:42:57.245Z,22.32
2023-05-11T10:44:16.744Z,22.32
2023-05-11T10:45:46.536Z,22.31
2023-05-11T10:47:02.203Z,22.25
2023-05-11T10:48:22.569Z,22.16
2023-05-11T10:49:48.419Z,22.20
2023-05-11T10:51:43.267Z,22.29
2023-05-11T10:53:11.596Z,22.41
2023-05-11T10:55:01.183Z,22.42
2023-05-11T10:56:07.468Z,22.41
2023-05-11T10:57:50.122Z,22.50
2023-05-11T10:59:14.399Z,22.69
2023-05-11T11:00:22.099Z,22.56
2023-05-11T11:01:43.662Z,22.62
2023-05-11T11:02:45.351Z,22.55
2023-05-11T11:04:00.234Z,22.44
2023-05-11T11:05:02.248Z,22.52
2023-05-11T11:06:04.472Z,22.74
2023-05-11T11:07:07.141Z,22.87
2023-05-11T11:08:08.734Z,22.91
2023-05-11T11:09:16.594Z,22.78
2023-05-11T11:10:36.821Z,22.67
2023-05-11T11:11:43.106Z,22.62
2023-05-11T11:13:02.008Z,22.62
2023-05-11T11:14:04.808Z,22.59
2023-05-11T11:15:07.289Z,22.71
2023-05-11T11:16:09.347Z,22.63
2023-05-11T11:17:34.863Z,22.73
2023-05-11T11:18:36.654Z,22.76
2023-05-11T11:19:38.425Z,22.84
2023-05-11T11:20:47.860Z,22.86
2023-05-11T11:21:49.405Z,22.97
2023-05-11T11:22:50.979Z,23.01
2023-05-11T11:23:52.526Z,23.12
2023-05-11T11:24:54.074Z,23.07
2023-05-11T11:25:55.648Z,23.22
2023-05-11T11:26:57.348Z,23.24
2023-05-11T11:27:59.012Z,23.26
2023-05-11T11:29:09.881Z,23.32
2023-05-11T11:30:23.433Z,23.46
2023-05-11T11:31:32.927Z,23.41
2023-05-11T11:32:34.821Z,23.25
2023-05-11T11:33:36.389Z,23.15
2023-05-11T11:34:37.924Z,23.29
2023-05-11T11:35:39.549Z,23.46
2023-05-11T11:36:56.136Z,23.57
2023-05-11T11:38:02.050Z,23.64
2023-05-11T11:39:04.061Z,23.75
2023-05-11T11:40:14.805Z,23.67
2023-05-11T11:41:29.129Z,23.52
2023-05-11T11:42:30.601Z,23.38
2023-05-11T11:43:44.150Z,23.27
2023-05-11T11:44:46.266Z,23.06
2023-05-11T11:46:03.943Z,22.83
2023-05-11T11:47:19.521Z,22.60
2023-05-11T11:48:54.344Z,22.53
2023-05-11T11:50:11.990Z,22.29
2023-05-11T11:51:13.749Z,22.30
2023-05-11T11:52:33.938Z,22.10
2023-05-11T11:53:38.577Z,22.06
2023-05-11T11:54:45.118Z,22.02
2023-05-11T11:55:51.218Z,22.01
2023-05-11T11:56:53.437Z,22.14
2023-05-11T11:57:55.019Z,22.27
2023-05-11T11:58:58.027Z,22.40
2023-05-11T12:00:05.389Z,22.38
2023-05-11T12:01:18.595Z,22.23
2023-05-11T12:02:20.905Z,22.15
2023-05-11T12:03:23.211Z,22.13
2023-05-11T12:04:37.936Z,22.13
2023-05-11T12:05:43.803Z,22.10
2023-05-11T12:06:54.592Z,22.07
2023-05-11T12:07:59.345Z,22.10
2023-05-11T12:09:00.938Z,22.09
2023-05-11T12:10:03.137Z,21.97
2023-05-11T12:11:05.868Z,21.75
2023-05-11T12:12:09.172Z,21.80
2023-05-11T12:13:11.182Z,21.79
2023-05-11T12:14:13.083Z,21.90
2023-05-11T12:15:29.032Z,22.07
2023-05-11T12:16:30.729Z,22.09
2023-05-11T12:17:32.836Z,22.10
2023-05-11T12:18:34.410Z,22.09
2023-05-11T12:19:36.004Z,22.07
2023-05-11T12:20:37.531Z,22.13
2023-05-11T12:21:39.085Z,22.04
2023-05-11T12:22:41.132Z,22.00
2023-05-11T12:23:58.906Z,22.07
2023-05-11T12:25:05.529Z,22.26
2023-05-11T12:26:07.257Z,22.38
2023-05-11T12:27:08.856Z,22.40
2023-05-11T12:28:10.389Z,22.36
2023-05-11T12:29:14.435Z,22.40
2023-05-11T12:30:20.532Z,22.41
2023-05-11T12:31:22.093Z,22.45
2023-05-11T12:32:31.084Z,22.53
2023-05-11T12:33:32.670Z,22.47
2023-05-11T12:34:34.262Z,22.52
2023-05-11T12:35:35.806Z,22.55
2023-05-11T12:36:37.414Z,22.56
2023-05-11T12:37:42.465Z,22.61
2023-05-11T12:38:48.530Z,22.80
2023-05-11T12:39:54.213Z,22.81
2023-05-11T12:40:55.725Z,22.85
2023-05-11T12:41:57.425Z,22.90
2023-05-11T12:43:00.520Z,23.03
2023-05-11T12:44:02.250Z,23.02
2023-05-11T12:45:05.575Z,23.04
2023-05-11T12:46:07.567Z,23.10
2023-05-11T12:47:10.767Z,22.98
2023-05-11T12:48:13.415Z,22.94
2023-05-11T12:49:24.699Z,23.08
2023-05-11T12:50:26.857Z,23.19
2023-05-11T12:51:51.125Z,23.28
2023-05-11T12:52:52.696Z,23.34
2023-05-11T12:53:54.402Z,23.32
2023-05-11T12:54:56.726Z,23.27
2023-05-11T12:56:00.181Z,23.35
2023-05-11T12:57:02.772Z,23.34
2023-05-11T12:58:08.731Z,23.31
2023-05-11T12:59:24.465Z,23.26
2023-05-11T13:00:25.982Z,23.27
2023-05-11T13:01:27.553Z,23.37
2023-05-11T13:02:29.255Z,23.40
2023-05-11T13:03:32.572Z,23.25
2023-05-11T13:04:34.268Z,23.30
2023-05-11T13:05:35.932Z,23.30
2023-05-11T13:06:37.535Z,23.36
2023-05-11T13:07:39.360Z,23.29
2023-05-11T13:08:45.213Z,23.30
2023-05-11T13:09:56.551Z,23.27
2023-05-11T13:11:23.312Z,23.36
2023-05-11T13:12:25.422Z,23.25
2023-05-11T13:13:28.785Z,23.37
2023-05-11T13:14:31.354Z,23.38
2023-05-11T13:15:32.916Z,23.35
2023-05-11T13:16:34.647Z,23.39
2023-05-11T13:17:37.529Z,23.26
2023-05-11T13:18:39.144Z,23.11
2023-05-11T13:19:40.875Z,23.20
2023-05-11T13:20:42.543Z,22.95
2023-05-11T13:21:46.369Z,22.98
2023-05-11T13:22:49.309Z,23.14
2023-05-11T13:23:51.746Z,23.17
2023-05-11T13:25:10.988Z,23.15
2023-05-11T13:26:21.640Z,23.23
2023-05-11T13:27:23.213Z,23.23
2023-05-11T13:28:24.766Z,23.29
2023-05-11T13:29:26.681Z,23.43
2023-05-11T13:30:28.340Z,23.40
2023-05-11T13:31:29.973Z,23.21
2023-05-11T13:32:31.852Z,23.09
2023-05-11T13:33:33.404Z,23.13
2023-05-11T13:34:34.946Z,23.30
2023-05-11T13:35:40.254Z,23.44
2023-05-11T13:36:42.029Z,23.53
2023-05-11T13:37:43.589Z,23.54
2023-05-11T13:38:45.152Z,23.60
2023-05-11T13:39:46.710Z,23.54
2023-05-11T13:40:48.270Z,23.62
2023-05-11T13:41:49.824Z,23.76
2023-05-11T13:42:51.345Z,23.81
2023-05-11T13:43:52.852Z,23.82
2023-05-11T13:44:54.374Z,23.85
2023-05-11T13:45:55.896Z,23.83
2023-05-11T13:46:57.576Z,23.81
2023-05-11T13:47:59.256Z,23.76
2023-05-11T13:49:00.826Z,23.66